LFPM 181700Z AUTO 09003KT CAVOK 21/15 Q1012

Les avions qui composent notre flotte

Avion Robin DR400-120

Avion école

F-GAHP
   * tarif promotionnel appliqué pendant la formation des élèves non brevetés


F-GAHP Planche